sensor_id;sensor_type;location;lat;lon;timestamp;P1;durP1;ratioP1;P2;durP2;ratioP2
25639;SDS011;13497;48.322;16.204;2023-06-24T00:01:49;2.53;;;0.70;;
25639;SDS011;13497;48.322;16.204;2023-06-24T00:04:15;0.30;;;0.30;;
25639;SDS011;13497;48.322;16.204;2023-06-24T00:06:44;0.57;;;0.45;;
25639;SDS011;13497;48.322;16.204;2023-06-24T00:09:09;0.20;;;0.20;;
25639;SDS011;13497;48.322;16.204;2023-06-24T00:11:35;0.30;;;0.30;;
25639;SDS011;13497;48.322;16.204;2023-06-24T00:14:01;0.20;;;0.17;;
25639;SDS011;13497;48.322;16.204;2023-06-24T00:16:26;0.60;;;0.30;;
25639;SDS011;13497;48.322;16.204;2023-06-24T00:18:55;0.30;;;0.30;;
25639;SDS011;13497;48.322;16.204;2023-06-24T00:21:25;0.28;;;0.28;;
25639;SDS011;13497;48.322;16.204;2023-06-24T00:23:57;1.35;;;0.20;;
25639;SDS011;13497;48.322;16.204;2023-06-24T00:26:24;0.85;;;0.28;;
25639;SDS011;13497;48.322;16.204;2023-06-24T00:31:16;3.13;;;0.43;;
25639;SDS011;13497;48.322;16.204;2023-06-24T00:33:42;0.77;;;0.40;;
25639;SDS011;13497;48.322;16.204;2023-06-24T00:36:07;0.27;;;0.20;;
25639;SDS011;13497;48.322;16.204;2023-06-24T00:38:36;0.38;;;0.38;;
25639;SDS011;13497;48.322;16.204;2023-06-24T00:41:03;1.48;;;0.65;;
25639;SDS011;13497;48.322;16.204;2023-06-24T00:45:55;0.20;;;0.20;;
25639;SDS011;13497;48.322;16.204;2023-06-24T00:48:21;0.40;;;0.40;;
25639;SDS011;13497;48.322;16.204;2023-06-24T00:50:48;0.40;;;0.40;;
25639;SDS011;13497;48.322;16.204;2023-06-24T00:53:14;0.50;;;0.50;;
25639;SDS011;13497;48.322;16.204;2023-06-24T00:58:06;0.40;;;0.40;;
25639;SDS011;13497;48.322;16.204;2023-06-24T01:00:32;1.05;;;0.80;;
25639;SDS011;13497;48.322;16.204;2023-06-24T01:02:59;0.60;;;0.60;;
25639;SDS011;13497;48.322;16.204;2023-06-24T01:05:25;0.50;;;0.50;;
25639;SDS011;13497;48.322;16.204;2023-06-24T01:07:52;0.63;;;0.40;;
25639;SDS011;13497;48.322;16.204;2023-06-24T01:10:20;1.38;;;0.47;;
25639;SDS011;13497;48.322;16.204;2023-06-24T01:12:48;0.45;;;0.45;;
25639;SDS011;13497;48.322;16.204;2023-06-24T01:15:14;0.77;;;0.45;;
25639;SDS011;13497;48.322;16.204;2023-06-24T01:23:09;0.85;;;0.40;;
25639;SDS011;13497;48.322;16.204;2023-06-24T01:32:03;0.50;;;0.50;;
25639;SDS011;13497;48.322;16.204;2023-06-24T01:34:40;0.55;;;0.50;;
25639;SDS011;13497;48.322;16.204;2023-06-24T01:37:31;0.73;;;0.30;;
25639;SDS011;13497;48.322;16.204;2023-06-24T01:42:51;2.05;;;0.50;;
25639;SDS011;13497;48.322;16.204;2023-06-24T01:45:23;0.93;;;0.60;;
25639;SDS011;13497;48.322;16.204;2023-06-24T01:48:02;1.02;;;0.55;;
25639;SDS011;13497;48.322;16.204;2023-06-24T01:50:38;0.80;;;0.30;;
25639;SDS011;13497;48.322;16.204;2023-06-24T01:53:08;0.95;;;0.50;;
25639;SDS011;13497;48.322;16.204;2023-06-24T01:55:35;1.13;;;0.70;;
25639;SDS011;13497;48.322;16.204;2023-06-24T01:58:03;0.65;;;0.55;;
25639;SDS011;13497;48.322;16.204;2023-06-24T02:00:32;0.45;;;0.40;;
25639;SDS011;13497;48.322;16.204;2023-06-24T02:02:59;0.65;;;0.63;;
25639;SDS011;13497;48.322;16.204;2023-06-24T02:05:26;0.60;;;0.60;;
25639;SDS011;13497;48.322;16.204;2023-06-24T02:07:53;0.70;;;0.63;;
25639;SDS011;13497;48.322;16.204;2023-06-24T02:12:46;0.50;;;0.40;;
25639;SDS011;13497;48.322;16.204;2023-06-24T02:15:16;1.27;;;0.52;;
25639;SDS011;13497;48.322;16.204;2023-06-24T02:17:42;0.95;;;0.70;;
25639;SDS011;13497;48.322;16.204;2023-06-24T02:20:09;0.50;;;0.50;;
25639;SDS011;13497;48.322;16.204;2023-06-24T02:22:36;0.55;;;0.50;;
25639;SDS011;13497;48.322;16.204;2023-06-24T02:25:04;0.93;;;0.70;;
25639;SDS011;13497;48.322;16.204;2023-06-24T02:27:32;0.50;;;0.50;;
25639;SDS011;13497;48.322;16.204;2023-06-24T02:30:00;0.65;;;0.50;;
25639;SDS011;13497;48.322;16.204;2023-06-24T02:32:26;0.77;;;0.50;;
25639;SDS011;13497;48.322;16.204;2023-06-24T02:34:51;0.38;;;0.35;;
25639;SDS011;13497;48.322;16.204;2023-06-24T02:37:17;0.70;;;0.57;;
25639;SDS011;13497;48.322;16.204;2023-06-24T02:39:43;1.30;;;0.70;;
25639;SDS011;13497;48.322;16.204;2023-06-24T02:42:12;3.80;;;0.82;;
25639;SDS011;13497;48.322;16.204;2023-06-24T02:44:38;1.08;;;0.55;;
25639;SDS011;13497;48.322;16.204;2023-06-24T02:47:05;1.42;;;0.73;;
25639;SDS011;13497;48.322;16.204;2023-06-24T02:49:35;1.77;;;0.88;;
25639;SDS011;13497;48.322;16.204;2023-06-24T02:52:02;1.00;;;0.77;;
25639;SDS011;13497;48.322;16.204;2023-06-24T02:56:54;2.35;;;0.80;;
25639;SDS011;13497;48.322;16.204;2023-06-24T02:59:22;0.60;;;0.60;;
25639;SDS011;13497;48.322;16.204;2023-06-24T03:01:49;1.05;;;0.73;;
25639;SDS011;13497;48.322;16.204;2023-06-24T03:04:16;0.68;;;0.60;;
25639;SDS011;13497;48.322;16.204;2023-06-24T03:06:44;1.35;;;0.80;;
25639;SDS011;13497;48.322;16.204;2023-06-24T03:09:10;1.00;;;0.90;;
25639;SDS011;13497;48.322;16.204;2023-06-24T03:11:44;0.85;;;0.70;;
25639;SDS011;13497;48.322;16.204;2023-06-24T03:14:10;1.60;;;0.93;;
25639;SDS011;13497;48.322;16.204;2023-06-24T03:16:36;1.25;;;0.80;;
25639;SDS011;13497;48.322;16.204;2023-06-24T03:19:03;1.40;;;0.60;;
25639;SDS011;13497;48.322;16.204;2023-06-24T03:21:30;0.70;;;0.70;;
25639;SDS011;13497;48.322;16.204;2023-06-24T03:23:57;0.95;;;0.82;;
25639;SDS011;13497;48.322;16.204;2023-06-24T03:26:24;0.77;;;0.77;;
25639;SDS011;13497;48.322;16.204;2023-06-24T03:28:57;1.52;;;1.08;;
25639;SDS011;13497;48.322;16.204;2023-06-24T03:31:22;1.42;;;0.73;;
25639;SDS011;13497;48.322;16.204;2023-06-24T03:33:48;1.10;;;0.97;;
25639;SDS011;13497;48.322;16.204;2023-06-24T03:36:14;1.35;;;0.70;;
25639;SDS011;13497;48.322;16.204;2023-06-24T03:38:40;1.25;;;0.88;;
25639;SDS011;13497;48.322;16.204;2023-06-24T03:41:06;1.63;;;0.73;;
25639;SDS011;13497;48.322;16.204;2023-06-24T03:43:31;0.80;;;0.80;;
25639;SDS011;13497;48.322;16.204;2023-06-24T03:45:58;1.20;;;1.10;;
25639;SDS011;13497;48.322;16.204;2023-06-24T03:48:25;0.85;;;0.85;;
25639;SDS011;13497;48.322;16.204;2023-06-24T03:50:50;1.05;;;0.93;;
25639;SDS011;13497;48.322;16.204;2023-06-24T03:53:16;1.20;;;0.90;;
25639;SDS011;13497;48.322;16.204;2023-06-24T03:55:42;1.77;;;1.43;;
25639;SDS011;13497;48.322;16.204;2023-06-24T03:58:07;0.73;;;0.73;;
25639;SDS011;13497;48.322;16.204;2023-06-24T04:00:33;1.07;;;0.97;;
25639;SDS011;13497;48.322;16.204;2023-06-24T04:02:59;0.93;;;0.93;;
25639;SDS011;13497;48.322;16.204;2023-06-24T04:05:27;0.68;;;0.68;;
25639;SDS011;13497;48.322;16.204;2023-06-24T04:07:53;0.77;;;0.75;;
25639;SDS011;13497;48.322;16.204;2023-06-24T04:10:19;0.85;;;0.80;;
25639;SDS011;13497;48.322;16.204;2023-06-24T04:12:45;1.10;;;1.00;;
25639;SDS011;13497;48.322;16.204;2023-06-24T04:15:11;0.82;;;0.82;;
25639;SDS011;13497;48.322;16.204;2023-06-24T04:17:37;1.97;;;0.83;;
25639;SDS011;13497;48.322;16.204;2023-06-24T04:20:02;1.47;;;0.90;;
25639;SDS011;13497;48.322;16.204;2023-06-24T04:22:37;0.50;;;0.50;;
25639;SDS011;13497;48.322;16.204;2023-06-24T04:25:06;1.80;;;1.00;;
25639;SDS011;13497;48.322;16.204;2023-06-24T04:27:32;0.80;;;0.80;;
25639;SDS011;13497;48.322;16.204;2023-06-24T04:29:59;1.30;;;0.98;;
25639;SDS011;13497;48.322;16.204;2023-06-24T04:32:25;0.60;;;0.60;;
25639;SDS011;13497;48.322;16.204;2023-06-24T04:34:50;0.60;;;0.60;;
25639;SDS011;13497;48.322;16.204;2023-06-24T04:37:16;0.60;;;0.60;;
25639;SDS011;13497;48.322;16.204;2023-06-24T04:39:43;0.80;;;0.63;;
25639;SDS011;13497;48.322;16.204;2023-06-24T04:44:35;0.60;;;0.60;;
25639;SDS011;13497;48.322;16.204;2023-06-24T04:47:01;0.90;;;0.60;;
25639;SDS011;13497;48.322;16.204;2023-06-24T04:49:27;4.82;;;1.17;;
25639;SDS011;13497;48.322;16.204;2023-06-24T04:51:52;0.60;;;0.50;;
25639;SDS011;13497;48.322;16.204;2023-06-24T04:54:18;0.50;;;0.50;;
25639;SDS011;13497;48.322;16.204;2023-06-24T04:56:44;0.50;;;0.50;;
25639;SDS011;13497;48.322;16.204;2023-06-24T04:59:10;0.70;;;0.65;;
25639;SDS011;13497;48.322;16.204;2023-06-24T05:01:36;0.43;;;0.43;;
25639;SDS011;13497;48.322;16.204;2023-06-24T05:04:02;0.90;;;0.70;;
25639;SDS011;13497;48.322;16.204;2023-06-24T05:06:28;1.85;;;0.60;;
25639;SDS011;13497;48.322;16.204;2023-06-24T05:08:54;0.50;;;0.50;;
25639;SDS011;13497;48.322;16.204;2023-06-24T05:11:19;0.50;;;0.43;;
25639;SDS011;13497;48.322;16.204;2023-06-24T05:13:45;0.50;;;0.50;;
25639;SDS011;13497;48.322;16.204;2023-06-24T05:16:10;1.07;;;0.83;;
25639;SDS011;13497;48.322;16.204;2023-06-24T05:18:36;0.68;;;0.65;;
25639;SDS011;13497;48.322;16.204;2023-06-24T05:21:02;0.60;;;0.60;;
25639;SDS011;13497;48.322;16.204;2023-06-24T05:23:28;1.13;;;0.50;;
25639;SDS011;13497;48.322;16.204;2023-06-24T05:25:53;0.90;;;0.80;;
25639;SDS011;13497;48.322;16.204;2023-06-24T05:28:19;0.70;;;0.70;;
25639;SDS011;13497;48.322;16.204;2023-06-24T05:30:45;0.90;;;0.90;;
25639;SDS011;13497;48.322;16.204;2023-06-24T05:33:11;0.40;;;0.40;;
25639;SDS011;13497;48.322;16.204;2023-06-24T05:35:37;0.50;;;0.50;;
25639;SDS011;13497;48.322;16.204;2023-06-24T05:38:05;0.80;;;0.70;;
25639;SDS011;13497;48.322;16.204;2023-06-24T05:40:31;0.83;;;0.50;;
25639;SDS011;13497;48.322;16.204;2023-06-24T05:42:57;1.27;;;0.50;;
25639;SDS011;13497;48.322;16.204;2023-06-24T05:45:22;0.53;;;0.53;;
25639;SDS011;13497;48.322;16.204;2023-06-24T05:47:48;0.43;;;0.43;;
25639;SDS011;13497;48.322;16.204;2023-06-24T05:50:14;0.40;;;0.40;;
25639;SDS011;13497;48.322;16.204;2023-06-24T05:52:39;0.57;;;0.40;;
25639;SDS011;13497;48.322;16.204;2023-06-24T05:55:05;0.20;;;0.20;;
25639;SDS011;13497;48.322;16.204;2023-06-24T05:57:31;0.30;;;0.22;;
25639;SDS011;13497;48.322;16.204;2023-06-24T05:59:56;0.50;;;0.20;;
25639;SDS011;13497;48.322;16.204;2023-06-24T06:02:22;0.10;;;0.10;;
25639;SDS011;13497;48.322;16.204;2023-06-24T06:04:48;0.13;;;0.13;;
25639;SDS011;13497;48.322;16.204;2023-06-24T06:07:14;0.30;;;0.28;;
25639;SDS011;13497;48.322;16.204;2023-06-24T06:09:40;0.30;;;0.20;;
25639;SDS011;13497;48.322;16.204;2023-06-24T06:12:06;0.30;;;0.20;;
25639;SDS011;13497;48.322;16.204;2023-06-24T06:14:32;0.20;;;0.20;;
25639;SDS011;13497;48.322;16.204;2023-06-24T06:19:24;0.45;;;0.13;;
25639;SDS011;13497;48.322;16.204;2023-06-24T06:21:50;0.17;;;0.17;;
25639;SDS011;13497;48.322;16.204;2023-06-24T06:24:17;0.20;;;0.20;;
25639;SDS011;13497;48.322;16.204;2023-06-24T06:26:42;0.20;;;0.20;;
25639;SDS011;13497;48.322;16.204;2023-06-24T06:29:09;0.15;;;0.15;;
25639;SDS011;13497;48.322;16.204;2023-06-24T06:31:35;0.10;;;0.10;;
25639;SDS011;13497;48.322;16.204;2023-06-24T06:34:01;0.20;;;0.20;;
25639;SDS011;13497;48.322;16.204;2023-06-24T06:36:27;0.20;;;0.20;;
25639;SDS011;13497;48.322;16.204;2023-06-24T06:38:52;0.35;;;0.25;;
25639;SDS011;13497;48.322;16.204;2023-06-24T06:41:18;0.17;;;0.17;;
25639;SDS011;13497;48.322;16.204;2023-06-24T06:43:49;0.38;;;0.38;;
25639;SDS011;13497;48.322;16.204;2023-06-24T06:46:15;0.25;;;0.25;;
25639;SDS011;13497;48.322;16.204;2023-06-24T06:48:41;0.20;;;0.20;;
25639;SDS011;13497;48.322;16.204;2023-06-24T06:51:06;0.47;;;0.23;;
25639;SDS011;13497;48.322;16.204;2023-06-24T06:53:32;0.20;;;0.20;;
25639;SDS011;13497;48.322;16.204;2023-06-24T06:55:58;1.10;;;0.43;;
25639;SDS011;13497;48.322;16.204;2023-06-24T06:58:24;0.27;;;0.27;;
25639;SDS011;13497;48.322;16.204;2023-06-24T07:00:49;0.85;;;0.40;;
25639;SDS011;13497;48.322;16.204;2023-06-24T07:03:15;0.20;;;0.20;;
25639;SDS011;13497;48.322;16.204;2023-06-24T07:05:41;0.13;;;0.13;;
25639;SDS011;13497;48.322;16.204;2023-06-24T07:08:07;0.20;;;0.20;;
25639;SDS011;13497;48.322;16.204;2023-06-24T07:10:33;1.57;;;0.40;;
25639;SDS011;13497;48.322;16.204;2023-06-24T07:12:58;0.75;;;0.40;;
25639;SDS011;13497;48.322;16.204;2023-06-24T07:15:27;0.47;;;0.20;;
25639;SDS011;13497;48.322;16.204;2023-06-24T07:17:53;0.20;;;0.20;;
25639;SDS011;13497;48.322;16.204;2023-06-24T07:20:19;0.30;;;0.30;;
25639;SDS011;13497;48.322;16.204;2023-06-24T07:22:47;0.20;;;0.20;;
25639;SDS011;13497;48.322;16.204;2023-06-24T07:25:13;0.25;;;0.25;;
25639;SDS011;13497;48.322;16.204;2023-06-24T07:27:39;0.40;;;0.30;;
25639;SDS011;13497;48.322;16.204;2023-06-24T07:30:05;0.20;;;0.20;;
25639;SDS011;13497;48.322;16.204;2023-06-24T07:34:56;0.25;;;0.25;;
25639;SDS011;13497;48.322;16.204;2023-06-24T07:37:22;0.67;;;0.50;;
25639;SDS011;13497;48.322;16.204;2023-06-24T07:39:48;0.30;;;0.30;;
25639;SDS011;13497;48.322;16.204;2023-06-24T07:42:13;0.50;;;0.30;;
25639;SDS011;13497;48.322;16.204;2023-06-24T07:44:47;0.55;;;0.30;;
25639;SDS011;13497;48.322;16.204;2023-06-24T07:47:13;1.73;;;0.50;;
25639;SDS011;13497;48.322;16.204;2023-06-24T07:49:39;0.40;;;0.40;;
25639;SDS011;13497;48.322;16.204;2023-06-24T07:52:05;0.40;;;0.40;;
25639;SDS011;13497;48.322;16.204;2023-06-24T07:54:31;0.43;;;0.43;;
25639;SDS011;13497;48.322;16.204;2023-06-24T07:56:57;0.63;;;0.57;;
25639;SDS011;13497;48.322;16.204;2023-06-24T07:59:22;0.43;;;0.43;;
25639;SDS011;13497;48.322;16.204;2023-06-24T08:01:49;0.55;;;0.47;;
25639;SDS011;13497;48.322;16.204;2023-06-24T08:04:15;0.30;;;0.30;;
25639;SDS011;13497;48.322;16.204;2023-06-24T08:06:41;0.50;;;0.50;;
25639;SDS011;13497;48.322;16.204;2023-06-24T08:09:07;0.40;;;0.40;;
25639;SDS011;13497;48.322;16.204;2023-06-24T08:11:32;1.17;;;0.50;;
25639;SDS011;13497;48.322;16.204;2023-06-24T08:13:58;1.05;;;0.60;;
25639;SDS011;13497;48.322;16.204;2023-06-24T08:16:24;0.40;;;0.40;;
25639;SDS011;13497;48.322;16.204;2023-06-24T08:18:50;1.17;;;0.45;;
25639;SDS011;13497;48.322;16.204;2023-06-24T08:21:16;0.70;;;0.70;;
25639;SDS011;13497;48.322;16.204;2023-06-24T08:23:41;2.90;;;0.60;;
25639;SDS011;13497;48.322;16.204;2023-06-24T08:26:07;0.87;;;0.67;;
25639;SDS011;13497;48.322;16.204;2023-06-24T08:28:33;0.60;;;0.60;;
25639;SDS011;13497;48.322;16.204;2023-06-24T08:30:59;0.68;;;0.47;;
25639;SDS011;13497;48.322;16.204;2023-06-24T08:33:24;0.70;;;0.60;;
25639;SDS011;13497;48.322;16.204;2023-06-24T08:35:50;0.70;;;0.50;;
25639;SDS011;13497;48.322;16.204;2023-06-24T08:38:16;1.03;;;0.70;;
25639;SDS011;13497;48.322;16.204;2023-06-24T08:40:41;0.90;;;0.80;;
25639;SDS011;13497;48.322;16.204;2023-06-24T08:43:08;0.75;;;0.75;;
25639;SDS011;13497;48.322;16.204;2023-06-24T08:45:34;1.63;;;1.00;;
25639;SDS011;13497;48.322;16.204;2023-06-24T08:48:00;0.87;;;0.83;;
25639;SDS011;13497;48.322;16.204;2023-06-24T08:50:27;1.20;;;1.10;;
25639;SDS011;13497;48.322;16.204;2023-06-24T08:52:59;0.77;;;0.63;;
25639;SDS011;13497;48.322;16.204;2023-06-24T08:55:31;1.25;;;1.00;;
25639;SDS011;13497;48.322;16.204;2023-06-24T08:57:59;2.13;;;0.93;;
25639;SDS011;13497;48.322;16.204;2023-06-24T09:00:26;0.83;;;0.83;;
25639;SDS011;13497;48.322;16.204;2023-06-24T09:05:17;0.93;;;0.80;;
25639;SDS011;13497;48.322;16.204;2023-06-24T09:07:43;1.07;;;0.97;;
25639;SDS011;13497;48.322;16.204;2023-06-24T09:10:09;5.10;;;1.00;;
25639;SDS011;13497;48.322;16.204;2023-06-24T09:12:54;1.20;;;1.10;;
25639;SDS011;13497;48.322;16.204;2023-06-24T09:15:20;17.00;;;9.47;;
25639;SDS011;13497;48.322;16.204;2023-06-24T09:17:45;5.70;;;3.10;;
25639;SDS011;13497;48.322;16.204;2023-06-24T09:20:11;1.00;;;0.90;;
25639;SDS011;13497;48.322;16.204;2023-06-24T09:22:39;1.35;;;1.25;;
25639;SDS011;13497;48.322;16.204;2023-06-24T09:25:06;1.73;;;0.90;;
25639;SDS011;13497;48.322;16.204;2023-06-24T09:27:32;1.35;;;1.10;;
25639;SDS011;13497;48.322;16.204;2023-06-24T09:29:58;1.48;;;1.08;;
25639;SDS011;13497;48.322;16.204;2023-06-24T09:32:30;1.92;;;0.90;;
25639;SDS011;13497;48.322;16.204;2023-06-24T09:34:56;1.20;;;0.82;;
25639;SDS011;13497;48.322;16.204;2023-06-24T09:37:22;1.45;;;1.10;;
25639;SDS011;13497;48.322;16.204;2023-06-24T09:39:49;2.00;;;0.98;;
25639;SDS011;13497;48.322;16.204;2023-06-24T09:42:15;1.37;;;1.03;;
25639;SDS011;13497;48.322;16.204;2023-06-24T09:44:51;1.35;;;1.20;;
25639;SDS011;13497;48.322;16.204;2023-06-24T09:47:18;2.13;;;1.10;;
25639;SDS011;13497;48.322;16.204;2023-06-24T09:49:44;2.30;;;1.50;;
25639;SDS011;13497;48.322;16.204;2023-06-24T09:52:09;3.87;;;1.10;;
25639;SDS011;13497;48.322;16.204;2023-06-24T09:54:41;1.40;;;1.20;;
25639;SDS011;13497;48.322;16.204;2023-06-24T09:57:09;1.05;;;0.95;;
25639;SDS011;13497;48.322;16.204;2023-06-24T09:59:35;5.78;;;1.52;;
25639;SDS011;13497;48.322;16.204;2023-06-24T10:02:02;1.55;;;1.35;;
25639;SDS011;13497;48.322;16.204;2023-06-24T10:04:29;2.22;;;1.50;;
25639;SDS011;13497;48.322;16.204;2023-06-24T10:06:56;1.92;;;1.30;;
25639;SDS011;13497;48.322;16.204;2023-06-24T10:09:23;1.73;;;1.38;;
25639;SDS011;13497;48.322;16.204;2023-06-24T10:11:48;1.73;;;1.30;;
25639;SDS011;13497;48.322;16.204;2023-06-24T10:14:14;1.60;;;1.47;;
25639;SDS011;13497;48.322;16.204;2023-06-24T10:16:40;3.30;;;2.25;;
25639;SDS011;13497;48.322;16.204;2023-06-24T10:19:07;3.03;;;1.77;;
25639;SDS011;13497;48.322;16.204;2023-06-24T10:21:46;2.50;;;1.80;;
25639;SDS011;13497;48.322;16.204;2023-06-24T10:24:33;2.70;;;1.85;;
25639;SDS011;13497;48.322;16.204;2023-06-24T10:27:04;2.25;;;1.77;;
25639;SDS011;13497;48.322;16.204;2023-06-24T10:29:32;2.65;;;1.90;;
25639;SDS011;13497;48.322;16.204;2023-06-24T10:32:09;2.00;;;1.77;;
25639;SDS011;13497;48.322;16.204;2023-06-24T10:37:11;2.58;;;2.17;;
25639;SDS011;13497;48.322;16.204;2023-06-24T10:39:57;3.85;;;2.45;;
25639;SDS011;13497;48.322;16.204;2023-06-24T10:42:25;2.90;;;1.95;;
25639;SDS011;13497;48.322;16.204;2023-06-24T10:47:43;3.40;;;1.98;;
25639;SDS011;13497;48.322;16.204;2023-06-24T10:50:21;3.05;;;2.25;;
25639;SDS011;13497;48.322;16.204;2023-06-24T10:52:52;2.63;;;2.10;;
25639;SDS011;13497;48.322;16.204;2023-06-24T10:55:24;4.25;;;1.65;;
25639;SDS011;13497;48.322;16.204;2023-06-24T10:57:51;1.92;;;1.65;;
25639;SDS011;13497;48.322;16.204;2023-06-24T11:00:16;2.37;;;1.37;;
25639;SDS011;13497;48.322;16.204;2023-06-24T11:02:43;2.30;;;1.67;;
25639;SDS011;13497;48.322;16.204;2023-06-24T11:05:10;2.05;;;1.73;;
25639;SDS011;13497;48.322;16.204;2023-06-24T11:07:37;2.58;;;1.45;;
25639;SDS011;13497;48.322;16.204;2023-06-24T11:10:13;1.98;;;1.60;;
25639;SDS011;13497;48.322;16.204;2023-06-24T11:12:40;1.63;;;1.17;;
25639;SDS011;13497;48.322;16.204;2023-06-24T11:15:07;1.65;;;1.05;;
25639;SDS011;13497;48.322;16.204;2023-06-24T11:17:37;1.90;;;1.30;;
25639;SDS011;13497;48.322;16.204;2023-06-24T11:20:07;1.85;;;1.30;;
25639;SDS011;13497;48.322;16.204;2023-06-24T11:22:34;1.17;;;1.08;;
25639;SDS011;13497;48.322;16.204;2023-06-24T11:25:00;1.00;;;0.82;;
25639;SDS011;13497;48.322;16.204;2023-06-24T11:27:29;1.33;;;1.10;;
25639;SDS011;13497;48.322;16.204;2023-06-24T11:29:57;2.53;;;1.27;;
25639;SDS011;13497;48.322;16.204;2023-06-24T11:32:25;1.70;;;1.17;;
25639;SDS011;13497;48.322;16.204;2023-06-24T11:34:59;1.70;;;1.40;;
25639;SDS011;13497;48.322;16.204;2023-06-24T11:37:30;2.33;;;1.47;;
25639;SDS011;13497;48.322;16.204;2023-06-24T11:40:01;3.92;;;1.10;;
25639;SDS011;13497;48.322;16.204;2023-06-24T11:42:32;1.77;;;1.23;;
25639;SDS011;13497;48.322;16.204;2023-06-24T11:45:04;1.42;;;0.80;;
25639;SDS011;13497;48.322;16.204;2023-06-24T11:47:31;1.10;;;1.00;;
25639;SDS011;13497;48.322;16.204;2023-06-24T11:49:58;0.82;;;0.82;;
25639;SDS011;13497;48.322;16.204;2023-06-24T11:52:32;1.27;;;1.00;;
25639;SDS011;13497;48.322;16.204;2023-06-24T11:55:00;1.23;;;1.00;;
25639;SDS011;13497;48.322;16.204;2023-06-24T12:00:14;2.22;;;1.50;;
25639;SDS011;13497;48.322;16.204;2023-06-24T12:02:40;1.55;;;1.45;;
25639;SDS011;13497;48.322;16.204;2023-06-24T12:05:06;1.50;;;1.33;;
25639;SDS011;13497;48.322;16.204;2023-06-24T12:07:32;1.95;;;1.10;;
25639;SDS011;13497;48.322;16.204;2023-06-24T12:09:59;1.83;;;1.40;;
25639;SDS011;13497;48.322;16.204;2023-06-24T12:12:24;1.33;;;1.17;;
25639;SDS011;13497;48.322;16.204;2023-06-24T12:14:50;1.67;;;1.30;;
25639;SDS011;13497;48.322;16.204;2023-06-24T12:17:17;1.98;;;1.50;;
25639;SDS011;13497;48.322;16.204;2023-06-24T12:19:42;2.10;;;1.47;;
25639;SDS011;13497;48.322;16.204;2023-06-24T12:22:08;3.85;;;1.77;;
25639;SDS011;13497;48.322;16.204;2023-06-24T12:24:34;2.87;;;1.47;;
25639;SDS011;13497;48.322;16.204;2023-06-24T12:26:59;2.00;;;1.57;;
25639;SDS011;13497;48.322;16.204;2023-06-24T12:29:25;1.50;;;1.30;;
25639;SDS011;13497;48.322;16.204;2023-06-24T12:31:51;1.87;;;1.50;;
25639;SDS011;13497;48.322;16.204;2023-06-24T12:34:16;2.43;;;1.90;;
25639;SDS011;13497;48.322;16.204;2023-06-24T12:36:42;1.37;;;1.27;;
25639;SDS011;13497;48.322;16.204;2023-06-24T12:39:07;2.27;;;1.63;;
25639;SDS011;13497;48.322;16.204;2023-06-24T12:41:33;2.30;;;1.73;;
25639;SDS011;13497;48.322;16.204;2023-06-24T12:43:58;2.70;;;2.17;;
25639;SDS011;13497;48.322;16.204;2023-06-24T12:46:24;4.77;;;1.67;;
25639;SDS011;13497;48.322;16.204;2023-06-24T12:48:50;2.47;;;2.00;;
25639;SDS011;13497;48.322;16.204;2023-06-24T12:51:15;1.83;;;1.73;;
25639;SDS011;13497;48.322;16.204;2023-06-24T12:53:41;2.40;;;1.73;;
25639;SDS011;13497;48.322;16.204;2023-06-24T12:56:07;2.57;;;2.00;;
25639;SDS011;13497;48.322;16.204;2023-06-24T12:58:33;1.80;;;1.58;;
25639;SDS011;13497;48.322;16.204;2023-06-24T13:00:59;2.30;;;1.60;;
25639;SDS011;13497;48.322;16.204;2023-06-24T13:03:25;2.07;;;1.87;;
25639;SDS011;13497;48.322;16.204;2023-06-24T13:05:50;2.83;;;1.43;;
25639;SDS011;13497;48.322;16.204;2023-06-24T13:08:16;1.97;;;1.77;;
25639;SDS011;13497;48.322;16.204;2023-06-24T13:10:42;1.50;;;1.33;;
25639;SDS011;13497;48.322;16.204;2023-06-24T13:13:07;2.77;;;1.47;;
25639;SDS011;13497;48.322;16.204;2023-06-24T13:15:33;1.75;;;1.48;;
25639;SDS011;13497;48.322;16.204;2023-06-24T13:17:59;2.33;;;1.67;;
25639;SDS011;13497;48.322;16.204;2023-06-24T13:20:26;2.40;;;1.95;;
25639;SDS011;13497;48.322;16.204;2023-06-24T13:22:52;2.97;;;1.65;;
25639;SDS011;13497;48.322;16.204;2023-06-24T13:25:18;1.87;;;1.60;;
25639;SDS011;13497;48.322;16.204;2023-06-24T13:27:43;1.77;;;1.43;;
25639;SDS011;13497;48.322;16.204;2023-06-24T13:30:10;2.10;;;1.35;;
25639;SDS011;13497;48.322;16.204;2023-06-24T13:32:36;4.78;;;2.25;;
25639;SDS011;13497;48.322;16.204;2023-06-24T13:37:28;1.83;;;1.45;;
25639;SDS011;13497;48.322;16.204;2023-06-24T13:39:55;2.15;;;1.50;;
25639;SDS011;13497;48.322;16.204;2023-06-24T13:42:21;1.97;;;1.43;;
25639;SDS011;13497;48.322;16.204;2023-06-24T13:44:46;2.40;;;1.67;;
25639;SDS011;13497;48.322;16.204;2023-06-24T13:47:12;2.40;;;1.87;;
25639;SDS011;13497;48.322;16.204;2023-06-24T13:49:38;3.90;;;1.88;;
25639;SDS011;13497;48.322;16.204;2023-06-24T13:52:03;2.20;;;1.50;;
25639;SDS011;13497;48.322;16.204;2023-06-24T13:54:29;2.13;;;1.48;;
25639;SDS011;13497;48.322;16.204;2023-06-24T13:56:57;2.00;;;1.42;;
25639;SDS011;13497;48.322;16.204;2023-06-24T13:59:23;2.67;;;1.92;;
25639;SDS011;13497;48.322;16.204;2023-06-24T14:01:49;1.83;;;1.67;;
25639;SDS011;13497;48.322;16.204;2023-06-24T14:04:15;1.73;;;1.63;;
25639;SDS011;13497;48.322;16.204;2023-06-24T14:06:41;2.27;;;1.87;;
25639;SDS011;13497;48.322;16.204;2023-06-24T14:09:08;1.88;;;1.27;;
25639;SDS011;13497;48.322;16.204;2023-06-24T14:11:34;1.50;;;1.30;;
25639;SDS011;13497;48.322;16.204;2023-06-24T14:14:00;2.38;;;1.90;;
25639;SDS011;13497;48.322;16.204;2023-06-24T14:16:25;4.03;;;1.40;;
25639;SDS011;13497;48.322;16.204;2023-06-24T14:18:51;2.50;;;1.52;;
25639;SDS011;13497;48.322;16.204;2023-06-24T14:21:17;1.97;;;1.50;;
25639;SDS011;13497;48.322;16.204;2023-06-24T14:23:42;1.83;;;1.50;;
25639;SDS011;13497;48.322;16.204;2023-06-24T14:26:08;1.63;;;1.33;;
25639;SDS011;13497;48.322;16.204;2023-06-24T14:28:34;1.80;;;1.57;;
25639;SDS011;13497;48.322;16.204;2023-06-24T14:31:00;2.10;;;1.20;;
25639;SDS011;13497;48.322;16.204;2023-06-24T14:33:25;2.17;;;1.35;;
25639;SDS011;13497;48.322;16.204;2023-06-24T14:35:51;1.75;;;1.50;;
25639;SDS011;13497;48.322;16.204;2023-06-24T14:38:17;2.20;;;1.83;;
25639;SDS011;13497;48.322;16.204;2023-06-24T14:40:43;1.95;;;1.42;;
25639;SDS011;13497;48.322;16.204;2023-06-24T14:43:08;1.63;;;1.47;;
25639;SDS011;13497;48.322;16.204;2023-06-24T14:45:34;3.97;;;2.10;;
25639;SDS011;13497;48.322;16.204;2023-06-24T14:48:00;2.53;;;1.63;;
25639;SDS011;13497;48.322;16.204;2023-06-24T14:50:25;2.37;;;1.33;;
25639;SDS011;13497;48.322;16.204;2023-06-24T14:52:51;1.97;;;1.70;;
25639;SDS011;13497;48.322;16.204;2023-06-24T14:55:17;3.03;;;1.95;;
25639;SDS011;13497;48.322;16.204;2023-06-24T14:57:42;2.38;;;1.83;;
25639;SDS011;13497;48.322;16.204;2023-06-24T15:00:08;1.77;;;1.40;;
25639;SDS011;13497;48.322;16.204;2023-06-24T15:02:34;3.05;;;1.77;;
25639;SDS011;13497;48.322;16.204;2023-06-24T15:05:01;2.80;;;1.83;;
25639;SDS011;13497;48.322;16.204;2023-06-24T15:07:27;1.80;;;1.48;;
25639;SDS011;13497;48.322;16.204;2023-06-24T15:09:53;2.00;;;1.35;;
25639;SDS011;13497;48.322;16.204;2023-06-24T15:12:18;2.95;;;1.60;;
25639;SDS011;13497;48.322;16.204;2023-06-24T15:14:44;2.10;;;1.67;;
25639;SDS011;13497;48.322;16.204;2023-06-24T15:17:11;3.15;;;1.80;;
25639;SDS011;13497;48.322;16.204;2023-06-24T15:19:37;5.30;;;2.13;;